createdAt,value
2022-08-11T00:02:00.997Z,92.33
2022-08-11T00:04:30.135Z,91.34
2022-08-11T00:06:58.630Z,90.48
2022-08-11T00:09:38.934Z,89.72
2022-08-11T00:12:14.197Z,89.01
2022-08-11T00:14:42.391Z,88.90
2022-08-11T00:17:14.906Z,88.31
2022-08-11T00:20:11.836Z,88.83
2022-08-11T00:22:34.932Z,89.84
2022-08-11T00:25:11.209Z,90.29
2022-08-11T00:27:40.150Z,91.61
2022-08-11T00:30:09.943Z,92.09
2022-08-11T00:32:39.504Z,91.04
2022-08-11T00:35:54.680Z,90.61
2022-08-11T00:37:58.348Z,89.72
2022-08-11T00:40:32.799Z,89.55
2022-08-11T00:43:10.681Z,89.58
2022-08-11T00:45:43.979Z,90.05
2022-08-11T00:48:20.963Z,90.71
2022-08-11T00:51:00.143Z,90.75
2022-08-11T00:53:44.631Z,90.27
2022-08-11T00:56:45.547Z,90.07
2022-08-11T00:59:35.001Z,91.77
2022-08-11T01:02:13.897Z,91.09
2022-08-11T01:05:15.735Z,90.89
2022-08-11T01:08:11.310Z,92.94
2022-08-11T01:11:02.807Z,92.29
2022-08-11T01:13:51.992Z,92.08
2022-08-11T01:16:57.581Z,91.74
2022-08-11T01:20:45.207Z,90.73
2022-08-11T01:23:18.433Z,90.74
2022-08-11T01:26:01.435Z,91.80
2022-08-11T01:29:11.350Z,91.67
2022-08-11T01:32:39.641Z,90.85
2022-08-11T01:35:46.150Z,90.90
2022-08-11T01:38:56.036Z,91.71
2022-08-11T01:42:01.707Z,91.43
2022-08-11T01:44:53.064Z,90.91
2022-08-11T01:47:52.478Z,91.00
2022-08-11T01:50:42.064Z,90.96
2022-08-11T01:53:17.207Z,91.37
2022-08-11T01:55:57.978Z,91.25
2022-08-11T01:58:42.441Z,91.53
2022-08-11T02:01:24.232Z,91.90
2022-08-11T02:03:56.668Z,92.00
2022-08-11T02:06:50.107Z,92.12
2022-08-11T02:09:24.380Z,92.55
2022-08-11T02:11:53.059Z,92.54
2022-08-11T02:14:27.640Z,92.19
2022-08-11T02:17:15.368Z,93.12
2022-08-11T02:20:08.755Z,91.86
2022-08-11T02:23:01.815Z,92.41
2022-08-11T02:25:32.786Z,93.08
2022-08-11T02:28:04.926Z,92.95
2022-08-11T02:30:36.330Z,93.33
2022-08-11T02:33:25.320Z,93.40
2022-08-11T02:36:02.463Z,92.16
2022-08-11T02:38:34.594Z,91.31
2022-08-11T02:41:29.559Z,91.86
2022-08-11T02:44:10.660Z,92.93
2022-08-11T02:46:45.979Z,92.45
2022-08-11T02:49:45.666Z,92.07
2022-08-11T02:52:20.126Z,94.08
2022-08-11T02:54:55.520Z,92.88
2022-08-11T02:57:29.381Z,93.69
2022-08-11T03:00:08.043Z,93.67
2022-08-11T03:02:51.741Z,92.08
2022-08-11T03:05:25.452Z,92.14
2022-08-11T03:08:24.822Z,93.17
2022-08-11T03:11:16.167Z,92.44
2022-08-11T03:14:07.630Z,92.30
2022-08-11T03:16:49.007Z,92.47
2022-08-11T03:19:24.460Z,92.62
2022-08-11T03:22:03.031Z,92.94
2022-08-11T03:24:38.489Z,93.65
2022-08-11T03:27:11.385Z,94.53
2022-08-11T03:29:46.161Z,92.90
2022-08-11T03:32:23.673Z,92.76
2022-08-11T03:34:51.648Z,95.14
2022-08-11T03:37:45.418Z,94.90
2022-08-11T03:40:38.336Z,94.23
2022-08-11T03:43:18.144Z,94.91
2022-08-11T03:45:57.580Z,93.58
2022-08-11T03:48:33.550Z,92.92
2022-08-11T03:51:09.052Z,92.77
2022-08-11T03:53:49.456Z,92.78
2022-08-11T03:56:40.321Z,94.56
2022-08-11T03:59:43.744Z,93.39
2022-08-11T04:02:33.608Z,93.24
2022-08-11T04:05:36.534Z,93.21
2022-08-11T04:08:26.529Z,93.81
2022-08-11T04:11:32.619Z,94.07
2022-08-11T04:14:32.520Z,94.14
2022-08-11T04:17:23.074Z,94.33
2022-08-11T04:19:55.588Z,94.28
2022-08-11T04:22:39.240Z,94.84
2022-08-11T04:25:23.196Z,95.27
2022-08-11T04:28:28.672Z,94.28
2022-08-11T04:31:50.783Z,93.65
2022-08-11T04:34:16.004Z,93.25
2022-08-11T04:37:21.586Z,93.73
2022-08-11T04:40:06.369Z,93.97
2022-08-11T04:43:30.751Z,93.34
2022-08-11T04:46:18.924Z,93.43
2022-08-11T04:49:25.849Z,93.36
2022-08-11T04:53:02.226Z,92.62
2022-08-11T04:56:21.038Z,92.23
2022-08-11T04:59:30.536Z,91.41
2022-08-11T05:02:41.053Z,90.88
2022-08-11T05:05:32.377Z,90.62
2022-08-11T05:08:38.469Z,89.96
2022-08-11T05:11:22.659Z,89.67
2022-08-11T05:14:09.570Z,89.31
2022-08-11T05:17:12.125Z,88.66
2022-08-11T05:19:57.763Z,88.71
2022-08-11T05:22:47.373Z,88.57
2022-08-11T05:26:25.380Z,88.41
2022-08-11T05:28:49.675Z,87.99
2022-08-11T05:31:37.658Z,87.29
2022-08-11T05:34:28.692Z,87.34
2022-08-11T05:37:23.903Z,87.27
2022-08-11T05:40:08.763Z,86.70
2022-08-11T05:42:59.202Z,87.21
2022-08-11T05:46:04.077Z,86.66
2022-08-11T05:48:54.915Z,86.43
2022-08-11T05:51:52.474Z,86.00
2022-08-11T05:54:41.856Z,85.55
2022-08-11T05:57:39.551Z,85.49
2022-08-11T06:00:01.911Z,85.67
2022-08-11T06:02:39.509Z,85.31
2022-08-11T06:05:11.552Z,84.95
2022-08-11T06:07:48.654Z,84.14
2022-08-11T06:10:29.285Z,83.69
2022-08-11T06:12:59.646Z,83.15
2022-08-11T06:15:28.349Z,83.49
2022-08-11T06:17:58.900Z,82.51
2022-08-11T06:20:27.000Z,82.91
2022-08-11T06:22:59.650Z,82.34
2022-08-11T06:25:32.169Z,81.31
2022-08-11T06:28:01.069Z,81.04
2022-08-11T06:30:39.646Z,80.00
2022-08-11T06:33:11.488Z,80.62
2022-08-11T06:35:55.539Z,80.53
2022-08-11T06:38:38.310Z,79.73
2022-08-11T06:41:26.626Z,79.27
2022-08-11T06:44:05.301Z,79.75
2022-08-11T06:46:38.778Z,78.73
2022-08-11T06:49:29.314Z,78.56
2022-08-11T06:51:56.964Z,77.34
2022-08-11T06:54:32.071Z,76.95
2022-08-11T06:57:31.104Z,77.28
2022-08-11T07:00:33.012Z,75.44
2022-08-11T07:03:03.395Z,75.08
2022-08-11T07:05:43.953Z,75.01
2022-08-11T07:09:07.214Z,75.29
2022-08-11T07:12:20.270Z,73.19
2022-08-11T07:15:09.287Z,72.86
2022-08-11T07:17:44.247Z,71.68
2022-08-11T07:20:31.844Z,71.04
2022-08-11T07:23:21.146Z,70.27
2022-08-11T07:26:08.654Z,70.05
2022-08-11T07:28:57.982Z,69.77
2022-08-11T07:31:32.198Z,69.66
2022-08-11T07:34:17.417Z,68.65
2022-08-11T07:36:51.275Z,68.53
2022-08-11T07:39:23.358Z,69.19
2022-08-11T07:41:53.527Z,66.42
2022-08-11T07:44:22.202Z,66.22
2022-08-11T07:47:09.355Z,66.56
2022-08-11T07:49:56.796Z,66.70
2022-08-11T07:52:33.963Z,65.89
2022-08-11T07:55:05.804Z,64.41
2022-08-11T07:58:15.225Z,64.44
2022-08-11T08:01:10.142Z,64.16
2022-08-11T08:03:57.069Z,62.05
2022-08-11T08:06:43.226Z,61.36
2022-08-11T08:09:29.805Z,61.74
2022-08-11T08:12:19.142Z,61.08
2022-08-11T08:15:05.886Z,59.25
2022-08-11T08:18:20.921Z,59.26
2022-08-11T08:20:44.336Z,60.55
2022-08-11T08:23:12.630Z,59.07
2022-08-11T08:25:41.558Z,57.71
2022-08-11T08:28:14.302Z,57.81
2022-08-11T08:30:47.728Z,58.64
2022-08-11T08:33:17.823Z,59.19
2022-08-11T08:35:55.831Z,56.68
2022-08-11T08:38:24.562Z,56.20
2022-08-11T08:40:55.926Z,55.67
2022-08-11T08:43:26.125Z,55.14
2022-08-11T08:45:57.076Z,56.02
2022-08-11T08:48:27.124Z,56.14
2022-08-11T08:51:15.770Z,56.54
2022-08-11T08:53:52.649Z,55.57
2022-08-11T08:56:28.139Z,57.09
2022-08-11T08:58:58.811Z,56.05
2022-08-11T09:01:28.113Z,55.77
2022-08-11T09:04:05.355Z,55.45
2022-08-11T09:06:40.030Z,53.65
2022-08-11T09:09:09.640Z,53.74
2022-08-11T09:11:55.003Z,52.70
2022-08-11T09:14:49.033Z,53.15
2022-08-11T09:17:18.350Z,51.73
2022-08-11T09:19:49.580Z,50.60
2022-08-11T09:22:42.841Z,50.04
2022-08-11T09:25:28.478Z,50.50
2022-08-11T09:27:57.108Z,52.05
2022-08-11T09:30:28.347Z,51.46
2022-08-11T09:33:00.367Z,52.30
2022-08-11T09:35:29.880Z,51.15
2022-08-11T09:38:16.027Z,49.36
2022-08-11T09:40:47.425Z,51.68
2022-08-11T09:43:43.168Z,49.51
2022-08-11T09:46:15.836Z,48.56
2022-08-11T09:48:46.797Z,49.97
2022-08-11T09:51:15.471Z,48.20
2022-08-11T09:53:47.070Z,49.21
2022-08-11T09:56:48.778Z,50.36
2022-08-11T09:59:20.797Z,50.10
2022-08-11T10:01:56.444Z,50.65
2022-08-11T10:04:28.859Z,50.02
2022-08-11T10:07:01.816Z,49.86
2022-08-11T10:09:39.391Z,51.23
2022-08-11T10:12:10.994Z,52.46
2022-08-11T10:15:00.826Z,52.57
2022-08-11T10:17:32.643Z,53.88
2022-08-11T10:20:06.085Z,52.84
2022-08-11T10:22:52.977Z,53.31
2022-08-11T10:25:39.308Z,52.27
2022-08-11T10:28:16.764Z,52.35
2022-08-11T10:31:16.671Z,52.25
2022-08-11T10:34:02.276Z,53.33
2022-08-11T10:36:31.269Z,55.37
2022-08-11T10:39:00.006Z,62.57
2022-08-11T10:42:06.101Z,67.88
2022-08-11T10:44:40.123Z,70.14
2022-08-11T10:47:26.258Z,71.83
2022-08-11T10:50:10.808Z,71.67
2022-08-11T10:52:57.225Z,69.66
2022-08-11T10:55:43.213Z,71.43
2022-08-11T10:58:29.304Z,69.61
2022-08-11T11:00:58.968Z,71.45
2022-08-11T11:03:28.006Z,68.63
2022-08-11T11:06:12.683Z,70.47
2022-08-11T11:09:00.096Z,71.17
2022-08-11T11:11:46.522Z,71.67
2022-08-11T11:14:35.459Z,68.14
2022-08-11T11:17:32.642Z,67.90
2022-08-11T11:20:01.997Z,64.49
2022-08-11T11:23:01.507Z,64.13
2022-08-11T11:26:12.590Z,65.46
2022-08-11T11:29:25.501Z,63.97
2022-08-11T11:32:09.124Z,63.43
2022-08-11T11:35:16.626Z,61.77
2022-08-11T11:38:03.827Z,65.02
2022-08-11T11:40:35.455Z,63.45
2022-08-11T11:43:04.007Z,62.89
2022-08-11T11:45:32.133Z,62.24
2022-08-11T11:48:01.236Z,62.96
2022-08-11T11:50:31.630Z,63.98
2022-08-11T11:53:02.067Z,61.21
2022-08-11T11:55:31.434Z,59.56
2022-08-11T11:58:19.906Z,58.88
2022-08-11T12:01:07.955Z,57.77
2022-08-11T12:03:38.040Z,58.50
2022-08-11T12:06:06.629Z,58.45
2022-08-11T12:08:34.839Z,58.36
2022-08-11T12:11:21.924Z,58.43
2022-08-11T12:13:53.643Z,59.31
2022-08-11T12:16:34.668Z,59.31
2022-08-11T12:19:05.579Z,59.30
2022-08-11T12:21:38.832Z,57.55
2022-08-11T12:24:29.150Z,57.05
2022-08-11T12:27:17.727Z,58.82
2022-08-11T12:29:55.636Z,56.94
2022-08-11T12:32:30.261Z,55.43
2022-08-11T12:34:58.367Z,54.08
2022-08-11T12:37:30.531Z,53.34
2022-08-11T12:40:42.822Z,52.49
2022-08-11T12:43:39.768Z,53.41
2022-08-11T12:46:11.830Z,54.05
2022-08-11T12:49:07.490Z,55.15
2022-08-11T12:52:10.996Z,55.54
2022-08-11T12:54:58.789Z,52.62
2022-08-11T12:57:50.622Z,51.41
2022-08-11T13:00:37.533Z,51.08
2022-08-11T13:03:27.008Z,49.41
2022-08-11T13:06:11.940Z,49.02
2022-08-11T13:08:41.472Z,49.42
2022-08-11T13:11:56.329Z,49.96
2022-08-11T13:14:18.429Z,49.54
2022-08-11T13:17:04.954Z,49.11
2022-08-11T13:19:34.798Z,45.40
2022-08-11T13:22:05.510Z,44.81
2022-08-11T13:24:38.781Z,43.76
2022-08-11T13:27:08.005Z,43.28
2022-08-11T13:29:36.984Z,42.02
2022-08-11T13:32:05.738Z,42.58
2022-08-11T13:34:41.742Z,41.61
2022-08-11T13:37:12.256Z,42.12
2022-08-11T13:39:44.345Z,41.90
2022-08-11T13:42:12.653Z,40.01
2022-08-11T13:44:45.032Z,40.66
2022-08-11T13:47:15.012Z,40.73
2022-08-11T13:49:45.164Z,41.96
2022-08-11T13:52:15.673Z,42.30
2022-08-11T13:54:52.446Z,43.57
2022-08-11T13:58:07.684Z,43.79
2022-08-11T14:00:13.345Z,44.10
2022-08-11T14:03:05.570Z,45.25
2022-08-11T14:05:39.360Z,46.16
2022-08-11T14:08:33.952Z,45.33
2022-08-11T14:12:21.267Z,45.49
2022-08-11T14:14:11.024Z,46.19
2022-08-11T14:16:43.196Z,46.14
2022-08-11T14:19:14.351Z,47.17
2022-08-11T14:22:07.237Z,47.47
2022-08-11T14:24:36.662Z,48.15
2022-08-11T14:27:05.451Z,48.54
2022-08-11T14:29:46.324Z,49.12
2022-08-11T14:32:17.504Z,49.98
2022-08-11T14:34:45.643Z,50.35
2022-08-11T14:37:18.033Z,50.28
2022-08-11T14:39:48.113Z,49.92
2022-08-11T14:42:36.630Z,49.01
2022-08-11T14:45:58.094Z,48.41
2022-08-11T14:48:18.657Z,47.42
2022-08-11T14:50:48.545Z,47.44
2022-08-11T14:53:19.276Z,46.29
2022-08-11T14:56:04.954Z,45.48
2022-08-11T14:58:34.265Z,44.45
2022-08-11T15:01:03.852Z,45.42
2022-08-11T15:03:33.717Z,44.99
2022-08-11T15:06:05.244Z,45.13
2022-08-11T15:08:50.419Z,44.90
2022-08-11T15:11:36.964Z,44.86
2022-08-11T15:14:06.976Z,45.79
2022-08-11T15:16:59.575Z,45.48
2022-08-11T15:19:40.079Z,44.37
2022-08-11T15:25:11.559Z,44.20
2022-08-11T15:28:00.421Z,43.70
2022-08-11T15:30:46.173Z,42.14
2022-08-11T15:33:34.080Z,41.95
2022-08-11T15:36:19.911Z,41.24
2022-08-11T15:38:55.525Z,40.70
2022-08-11T15:41:54.528Z,41.38
2022-08-11T15:45:02.261Z,41.26
2022-08-11T15:47:39.315Z,42.05
2022-08-11T15:50:13.994Z,41.16
2022-08-11T15:52:48.141Z,40.41
2022-08-11T15:55:17.290Z,40.31
2022-08-11T15:58:07.247Z,39.54
2022-08-11T16:00:53.999Z,39.40
2022-08-11T16:04:06.232Z,39.60
2022-08-11T16:06:37.964Z,41.30
2022-08-11T16:09:17.977Z,41.38
2022-08-11T16:11:47.471Z,41.06
2022-08-11T16:14:35.464Z,41.70
2022-08-11T16:17:05.602Z,40.94
2022-08-11T16:19:35.856Z,41.65
2022-08-11T16:22:07.757Z,41.07
2022-08-11T16:26:30.324Z,41.35
2022-08-11T16:27:27.541Z,42.26
2022-08-11T16:29:57.699Z,41.56
2022-08-11T16:32:27.214Z,41.74
2022-08-11T16:35:19.169Z,41.51
2022-08-11T16:38:05.219Z,41.77
2022-08-11T16:40:34.132Z,41.54
2022-08-11T16:43:20.320Z,42.08
2022-08-11T16:46:08.251Z,41.99
2022-08-11T16:48:40.713Z,42.66
2022-08-11T16:51:09.437Z,42.88
2022-08-11T16:53:45.959Z,43.86
2022-08-11T16:56:29.737Z,44.86
2022-08-11T16:59:12.841Z,45.96
2022-08-11T17:01:43.157Z,47.13
2022-08-11T17:04:43.739Z,47.61
2022-08-11T17:07:41.856Z,48.51
2022-08-11T17:10:51.172Z,49.71
2022-08-11T17:13:25.295Z,51.02
2022-08-11T17:16:08.953Z,52.06
2022-08-11T17:18:44.177Z,52.22
2022-08-11T17:21:21.307Z,52.45
2022-08-11T17:23:52.341Z,53.02
2022-08-11T17:26:25.779Z,53.37
2022-08-11T17:31:59.974Z,54.53
2022-08-11T17:34:47.408Z,55.24
2022-08-11T17:37:18.222Z,54.85
2022-08-11T17:39:47.510Z,54.89
2022-08-11T17:42:36.328Z,55.70
2022-08-11T17:45:22.448Z,56.34
2022-08-11T17:48:08.610Z,57.00
2022-08-11T17:50:38.490Z,56.82
2022-08-11T17:53:24.310Z,56.78
2022-08-11T17:56:10.700Z,57.16
2022-08-11T17:58:58.035Z,57.22
2022-08-11T18:01:26.842Z,57.99
2022-08-11T18:03:58.040Z,58.32
2022-08-11T18:06:34.130Z,58.78
2022-08-11T18:09:23.031Z,58.87
2022-08-11T18:12:12.718Z,59.55
2022-08-11T18:14:59.716Z,60.33
2022-08-11T18:17:45.570Z,60.52
2022-08-11T18:20:37.227Z,60.71
2022-08-11T18:23:43.412Z,60.32
2022-08-11T18:26:34.651Z,61.70
2022-08-11T18:29:21.005Z,61.55
2022-08-11T18:32:08.735Z,63.10
2022-08-11T18:34:56.990Z,65.91
2022-08-11T18:37:45.925Z,66.21
2022-08-11T18:40:39.285Z,66.21
2022-08-11T18:43:29.473Z,66.82
2022-08-11T18:46:19.421Z,67.54
2022-08-11T18:49:11.808Z,68.62
2022-08-11T18:52:02.375Z,69.78
2022-08-11T18:54:53.254Z,69.84
2022-08-11T18:57:49.778Z,70.13
2022-08-11T19:00:43.407Z,70.80
2022-08-11T19:03:31.046Z,70.55
2022-08-11T19:06:38.874Z,70.82
2022-08-11T19:09:29.682Z,70.90
2022-08-11T19:12:16.606Z,71.76
2022-08-11T19:15:06.261Z,71.90
2022-08-11T19:18:04.877Z,73.40
2022-08-11T19:20:56.840Z,73.35
2022-08-11T19:23:47.995Z,74.24
2022-08-11T19:26:44.273Z,74.24
2022-08-11T19:30:11.154Z,73.85
2022-08-11T19:32:38.824Z,74.31
2022-08-11T19:35:26.372Z,72.93
2022-08-11T19:38:13.211Z,72.48
2022-08-11T19:40:59.388Z,73.74
2022-08-11T19:43:49.318Z,74.72
2022-08-11T19:46:38.000Z,76.22
2022-08-11T19:49:27.108Z,77.16
2022-08-11T19:52:13.283Z,77.68
2022-08-11T19:55:00.476Z,77.03
2022-08-11T19:57:46.430Z,77.07
2022-08-11T20:00:35.262Z,76.89
2022-08-11T20:03:23.482Z,77.41
2022-08-11T20:06:11.439Z,77.22
2022-08-11T20:09:01.241Z,77.61
2022-08-11T20:11:50.021Z,78.30
2022-08-11T20:14:36.762Z,78.47
2022-08-11T20:17:26.076Z,78.74
2022-08-11T20:20:12.810Z,79.37
2022-08-11T20:23:02.021Z,80.11
2022-08-11T20:25:47.975Z,81.16
2022-08-11T20:28:35.461Z,82.92
2022-08-11T20:31:21.705Z,83.36
2022-08-11T20:34:09.237Z,82.81
2022-08-11T20:36:57.886Z,82.06
2022-08-11T20:39:45.458Z,82.25
2022-08-11T20:42:33.669Z,82.87
2022-08-11T20:45:23.966Z,82.51
2022-08-11T20:48:10.173Z,82.65
2022-08-11T20:51:01.972Z,82.39
2022-08-11T20:53:52.576Z,82.22
2022-08-11T20:56:41.550Z,82.39
2022-08-11T20:59:28.525Z,83.40
2022-08-11T21:02:18.758Z,84.52
2022-08-11T21:05:15.681Z,84.30
2022-08-11T21:08:08.190Z,84.64
2022-08-11T21:10:57.051Z,85.60
2022-08-11T21:13:48.330Z,86.53
2022-08-11T21:16:49.050Z,86.11
2022-08-11T21:20:00.644Z,87.06
2022-08-11T21:22:59.706Z,87.13
2022-08-11T21:26:11.421Z,87.92
2022-08-11T21:28:59.388Z,87.53
2022-08-11T21:31:45.613Z,87.13
2022-08-11T21:34:33.596Z,87.74
2022-08-11T21:37:20.504Z,87.47
2022-08-11T21:40:08.347Z,88.04
2022-08-11T21:42:56.892Z,88.42
2022-08-11T21:45:45.161Z,88.54
2022-08-11T21:48:31.385Z,88.22
2022-08-11T21:51:17.524Z,88.76
2022-08-11T21:54:03.348Z,89.06
2022-08-11T21:56:53.472Z,89.28
2022-08-11T21:59:42.576Z,88.76
2022-08-11T22:02:29.590Z,88.58
2022-08-11T22:05:15.827Z,88.55
2022-08-11T22:08:01.506Z,89.04
2022-08-11T22:10:47.464Z,90.34
2022-08-11T22:13:37.018Z,91.61
2022-08-11T22:16:24.043Z,92.81
2022-08-11T22:19:12.933Z,92.00
2022-08-11T22:22:04.158Z,91.79
2022-08-11T22:24:51.988Z,91.06
2022-08-11T22:27:38.708Z,90.95
2022-08-11T22:30:27.612Z,91.73
2022-08-11T22:33:15.034Z,91.23
2022-08-11T22:36:03.122Z,91.21
2022-08-11T22:38:50.239Z,92.35
2022-08-11T22:41:36.733Z,92.13
2022-08-11T22:44:23.690Z,92.55
2022-08-11T22:47:11.374Z,92.72
2022-08-11T22:49:59.140Z,92.77
2022-08-11T22:52:47.878Z,94.36
2022-08-11T22:55:34.201Z,93.72
2022-08-11T22:58:21.134Z,94.08
2022-08-11T23:01:07.614Z,94.43
2022-08-11T23:03:53.818Z,94.63
2022-08-11T23:06:39.874Z,94.21
2022-08-11T23:09:27.649Z,94.68
2022-08-11T23:12:13.919Z,95.76
2022-08-11T23:15:00.250Z,96.10
2022-08-11T23:17:46.640Z,95.68
2022-08-11T23:20:45.949Z,95.73
2022-08-11T23:23:41.079Z,97.00
2022-08-11T23:26:29.365Z,96.29
2022-08-11T23:29:16.539Z,95.63
2022-08-11T23:32:02.307Z,95.08
2022-08-11T23:35:04.615Z,94.94
2022-08-11T23:38:00.048Z,94.68
2022-08-11T23:40:45.823Z,94.74
2022-08-11T23:43:39.456Z,94.35
2022-08-11T23:46:24.916Z,94.11
2022-08-11T23:49:12.367Z,93.61
2022-08-11T23:51:58.497Z,93.55
2022-08-11T23:54:44.370Z,93.34
2022-08-11T23:57:29.950Z,93.35
